sensor_id;sensor_type;location;lat;lon;timestamp;pressure;altitude;pressure_sealevel;temperature;humidity
64844;BME280;51310;52.198;5.422;2023-04-27T00:02:17;101946.91;;;1.23;100.00
64844;BME280;51310;52.198;5.422;2023-04-27T00:04:42;101950.81;;;1.21;100.00
64844;BME280;51310;52.198;5.422;2023-04-27T00:07:08;101954.47;;;1.18;100.00
64844;BME280;51310;52.198;5.422;2023-04-27T00:09:34;101957.00;;;1.18;100.00
64844;BME280;51310;52.198;5.422;2023-04-27T00:12:00;101952.63;;;1.11;100.00
64844;BME280;51310;52.198;5.422;2023-04-27T00:14:26;101960.72;;;1.09;100.00
64844;BME280;51310;52.198;5.422;2023-04-27T00:16:54;101959.53;;;1.01;100.00
64844;BME280;51310;52.198;5.422;2023-04-27T00:19:20;101952.84;;;0.96;100.00
64844;BME280;51310;52.198;5.422;2023-04-27T00:21:47;101951.22;;;0.96;100.00
64844;BME280;51310;52.198;5.422;2023-04-27T00:24:12;101957.22;;;0.91;100.00
64844;BME280;51310;52.198;5.422;2023-04-27T00:26:38;101959.97;;;0.93;100.00
64844;BME280;51310;52.198;5.422;2023-04-27T00:29:04;101961.13;;;0.89;100.00
64844;BME280;51310;52.198;5.422;2023-04-27T00:31:29;101963.44;;;0.88;100.00
64844;BME280;51310;52.198;5.422;2023-04-27T00:33:55;101956.03;;;0.84;100.00
64844;BME280;51310;52.198;5.422;2023-04-27T00:36:21;101951.19;;;0.79;100.00
64844;BME280;51310;52.198;5.422;2023-04-27T00:38:46;101952.81;;;0.79;100.00
64844;BME280;51310;52.198;5.422;2023-04-27T00:41:12;101942.22;;;0.76;100.00
64844;BME280;51310;52.198;5.422;2023-04-27T00:43:45;101945.91;;;0.78;100.00
64844;BME280;51310;52.198;5.422;2023-04-27T00:46:12;101946.56;;;0.71;100.00
64844;BME280;51310;52.198;5.422;2023-04-27T00:48:40;101950.94;;;0.67;100.00
64844;BME280;51310;52.198;5.422;2023-04-27T00:51:06;101953.03;;;0.69;100.00
64844;BME280;51310;52.198;5.422;2023-04-27T00:53:32;101959.75;;;0.80;100.00
64844;BME280;51310;52.198;5.422;2023-04-27T00:55:58;101961.13;;;0.84;100.00
64844;BME280;51310;52.198;5.422;2023-04-27T00:58:24;101956.47;;;0.75;100.00
64844;BME280;51310;52.198;5.422;2023-04-27T01:00:54;101954.41;;;0.67;100.00
64844;BME280;51310;52.198;5.422;2023-04-27T01:03:22;101952.75;;;0.62;100.00
64844;BME280;51310;52.198;5.422;2023-04-27T01:05:47;101948.16;;;0.59;100.00
64844;BME280;51310;52.198;5.422;2023-04-27T01:08:13;101946.09;;;0.57;100.00
64844;BME280;51310;52.198;5.422;2023-04-27T01:10:39;101940.53;;;0.54;100.00
64844;BME280;51310;52.198;5.422;2023-04-27T01:13:05;101941.22;;;0.53;100.00
64844;BME280;51310;52.198;5.422;2023-04-27T01:15:31;101941.44;;;0.49;100.00
64844;BME280;51310;52.198;5.422;2023-04-27T01:18:01;101941.91;;;0.46;100.00
64844;BME280;51310;52.198;5.422;2023-04-27T01:20:28;101939.81;;;0.44;100.00
64844;BME280;51310;52.198;5.422;2023-04-27T01:22:58;101944.41;;;0.40;100.00
64844;BME280;51310;52.198;5.422;2023-04-27T01:25:24;101953.81;;;0.36;100.00
64844;BME280;51310;52.198;5.422;2023-04-27T01:27:50;101951.50;;;0.32;100.00
64844;BME280;51310;52.198;5.422;2023-04-27T01:30:16;101956.78;;;0.28;100.00
64844;BME280;51310;52.198;5.422;2023-04-27T01:32:42;101963.66;;;0.23;100.00
64844;BME280;51310;52.198;5.422;2023-04-27T01:35:08;101959.06;;;0.20;100.00
64844;BME280;51310;52.198;5.422;2023-04-27T01:37:34;101962.97;;;0.18;100.00
64844;BME280;51310;52.198;5.422;2023-04-27T01:40:00;101950.06;;;0.17;100.00
64844;BME280;51310;52.198;5.422;2023-04-27T01:42:26;101952.59;;;0.17;100.00
64844;BME280;51310;52.198;5.422;2023-04-27T01:44:51;101951.22;;;0.13;100.00
64844;BME280;51310;52.198;5.422;2023-04-27T01:47:17;101944.03;;;0.11;100.00
64844;BME280;51310;52.198;5.422;2023-04-27T01:49:43;101939.88;;;0.06;100.00
64844;BME280;51310;52.198;5.422;2023-04-27T01:52:09;101938.72;;;0.04;100.00
64844;BME280;51310;52.198;5.422;2023-04-27T01:54:35;101937.34;;;0.06;100.00
64844;BME280;51310;52.198;5.422;2023-04-27T01:57:00;101933.19;;;0.01;100.00
64844;BME280;51310;52.198;5.422;2023-04-27T01:59:27;101941.25;;;0.04;100.00
64844;BME280;51310;52.198;5.422;2023-04-27T02:01:53;101932.50;;;0.02;100.00
64844;BME280;51310;52.198;5.422;2023-04-27T02:04:20;101935.47;;;-0.01;100.00
64844;BME280;51310;52.198;5.422;2023-04-27T02:06:46;101940.06;;;-0.04;100.00
64844;BME280;51310;52.198;5.422;2023-04-27T02:09:12;101940.06;;;-0.04;100.00
64844;BME280;51310;52.198;5.422;2023-04-27T02:11:38;101938.91;;;-0.06;100.00
64844;BME280;51310;52.198;5.422;2023-04-27T02:14:04;101942.81;;;-0.08;100.00
64844;BME280;51310;52.198;5.422;2023-04-27T02:16:30;101944.19;;;-0.10;100.00
64844;BME280;51310;52.198;5.422;2023-04-27T02:18:55;101944.13;;;-0.16;100.00
64844;BME280;51310;52.198;5.422;2023-04-27T02:21:21;101951.72;;;-0.16;100.00
64844;BME280;51310;52.198;5.422;2023-04-27T02:23:47;101946.41;;;-0.17;100.00
64844;BME280;51310;52.198;5.422;2023-04-27T02:26:18;101938.09;;;-0.22;100.00
64844;BME280;51310;52.198;5.422;2023-04-27T02:28:45;101945.03;;;-0.21;100.00
64844;BME280;51310;52.198;5.422;2023-04-27T02:31:13;101939.72;;;-0.23;100.00
64844;BME280;51310;52.198;5.422;2023-04-27T02:33:40;101942.00;;;-0.30;100.00
64844;BME280;51310;52.198;5.422;2023-04-27T02:36:07;101937.16;;;-0.28;100.00
64844;BME280;51310;52.198;5.422;2023-04-27T02:38:33;101941.78;;;-0.26;100.00
64844;BME280;51310;52.198;5.422;2023-04-27T02:40:59;101937.44;;;-0.21;100.00
64844;BME280;51310;52.198;5.422;2023-04-27T02:43:25;101928.94;;;-0.16;100.00
64844;BME280;51310;52.198;5.422;2023-04-27T02:45:51;101915.66;;;-0.09;100.00
64844;BME280;51310;52.198;5.422;2023-04-27T02:48:17;101923.91;;;-0.16;100.00
64844;BME280;51310;52.198;5.422;2023-04-27T02:50:44;101926.41;;;-0.22;100.00
64844;BME280;51310;52.198;5.422;2023-04-27T02:53:11;101918.56;;;-0.23;100.00
64844;BME280;51310;52.198;5.422;2023-04-27T02:55:37;101917.88;;;-0.22;100.00
64844;BME280;51310;52.198;5.422;2023-04-27T02:58:03;101916.28;;;-0.22;100.00
64844;BME280;51310;52.198;5.422;2023-04-27T03:00:29;101914.69;;;-0.15;100.00
64844;BME280;51310;52.198;5.422;2023-04-27T03:02:55;101923.69;;;-0.12;100.00
64844;BME280;51310;52.198;5.422;2023-04-27T03:05:21;101917.91;;;-0.16;100.00
64844;BME280;51310;52.198;5.422;2023-04-27T03:07:47;101921.16;;;-0.12;100.00
64844;BME280;51310;52.198;5.422;2023-04-27T03:10:13;101925.75;;;-0.15;100.00
64844;BME280;51310;52.198;5.422;2023-04-27T03:12:38;101926.41;;;-0.16;100.00
64844;BME280;51310;52.198;5.422;2023-04-27T03:15:04;101936.06;;;-0.19;100.00
64844;BME280;51310;52.198;5.422;2023-04-27T03:17:31;101934.22;;;-0.20;100.00
64844;BME280;51310;52.198;5.422;2023-04-27T03:19:56;101942.72;;;-0.19;100.00
64844;BME280;51310;52.198;5.422;2023-04-27T03:22:22;101934.50;;;-0.13;100.00
64844;BME280;51310;52.198;5.422;2023-04-27T03:24:48;101933.81;;;-0.12;100.00
64844;BME280;51310;52.198;5.422;2023-04-27T03:27:13;101942.09;;;-0.13;100.00
64844;BME280;51310;52.198;5.422;2023-04-27T03:29:39;101942.75;;;-0.14;100.00
64844;BME280;51310;52.198;5.422;2023-04-27T03:32:05;101939.97;;;-0.21;100.00
64844;BME280;51310;52.198;5.422;2023-04-27T03:34:31;101936.03;;;-0.25;100.00
64844;BME280;51310;52.198;5.422;2023-04-27T03:36:57;101932.31;;;-0.32;100.00
64844;BME280;51310;52.198;5.422;2023-04-27T03:39:22;101929.28;;;-0.35;100.00
64844;BME280;51310;52.198;5.422;2023-04-27T03:41:48;101929.75;;;-0.38;100.00
64844;BME280;51310;52.198;5.422;2023-04-27T03:44:14;101926.06;;;-0.40;100.00
64844;BME280;51310;52.198;5.422;2023-04-27T03:46:40;101932.47;;;-0.42;100.00
64844;BME280;51310;52.198;5.422;2023-04-27T03:49:05;101934.34;;;-0.41;100.00
64844;BME280;51310;52.198;5.422;2023-04-27T03:51:31;101933.25;;;-0.32;100.00
64844;BME280;51310;52.198;5.422;2023-04-27T03:54:00;101938.03;;;-0.33;100.00
64844;BME280;51310;52.198;5.422;2023-04-27T03:56:26;101933.44;;;-0.36;100.00
64844;BME280;51310;52.198;5.422;2023-04-27T03:58:51;101928.91;;;-0.27;100.00
64844;BME280;51310;52.198;5.422;2023-04-27T04:01:17;101928.94;;;-0.22;100.00
64844;BME280;51310;52.198;5.422;2023-04-27T04:03:44;101939.78;;;-0.17;100.00
64844;BME280;51310;52.198;5.422;2023-04-27T04:06:10;101933.59;;;-0.08;100.00
64844;BME280;51310;52.198;5.422;2023-04-27T04:08:35;101938.66;;;-0.08;100.00
64844;BME280;51310;52.198;5.422;2023-04-27T04:11:02;101931.75;;;-0.09;100.00
64844;BME280;51310;52.198;5.422;2023-04-27T04:13:28;101950.31;;;-0.19;100.00
64844;BME280;51310;52.198;5.422;2023-04-27T04:16:08;101943.16;;;-0.28;100.00
64844;BME280;51310;52.198;5.422;2023-04-27T04:18:35;101943.09;;;-0.33;100.00
64844;BME280;51310;52.198;5.422;2023-04-27T04:21:02;101934.59;;;-0.34;100.00
64844;BME280;51310;52.198;5.422;2023-04-27T04:23:28;101933.88;;;-0.38;100.00
64844;BME280;51310;52.198;5.422;2023-04-27T04:25:57;101939.41;;;-0.41;100.00
64844;BME280;51310;52.198;5.422;2023-04-27T04:28:23;101937.06;;;-0.45;100.00
64844;BME280;51310;52.198;5.422;2023-04-27T04:30:50;101946.22;;;-0.46;100.00
64844;BME280;51310;52.198;5.422;2023-04-27T04:33:16;101953.81;;;-0.46;100.00
64844;BME280;51310;52.198;5.422;2023-04-27T04:35:42;101955.44;;;-0.46;100.00
64844;BME280;51310;52.198;5.422;2023-04-27T04:38:11;101960.47;;;-0.46;100.00
64844;BME280;51310;52.198;5.422;2023-04-27T04:40:38;101960.75;;;-0.45;100.00
64844;BME280;51310;52.198;5.422;2023-04-27T04:43:04;101963.72;;;-0.42;100.00
64844;BME280;51310;52.198;5.422;2023-04-27T04:45:31;101971.31;;;-0.42;100.00
64844;BME280;51310;52.198;5.422;2023-04-27T04:47:57;101969.28;;;-0.38;100.00
64844;BME280;51310;52.198;5.422;2023-04-27T04:50:23;101960.56;;;-0.35;100.00
64844;BME280;51310;52.198;5.422;2023-04-27T04:52:49;101979.72;;;-0.26;100.00
64844;BME280;51310;52.198;5.422;2023-04-27T04:55:14;101973.56;;;-0.16;100.00
64844;BME280;51310;52.198;5.422;2023-04-27T04:57:40;101975.72;;;-0.03;100.00
64844;BME280;51310;52.198;5.422;2023-04-27T05:00:06;101970.75;;;0.09;100.00
64844;BME280;51310;52.198;5.422;2023-04-27T05:02:41;101967.34;;;0.25;100.00
64844;BME280;51310;52.198;5.422;2023-04-27T05:05:08;101960.53;;;0.47;100.00
64844;BME280;51310;52.198;5.422;2023-04-27T05:07:34;101961.28;;;0.63;100.00
64844;BME280;51310;52.198;5.422;2023-04-27T05:10:00;101960.44;;;0.85;100.00
64844;BME280;51310;52.198;5.422;2023-04-27T05:12:25;101960.47;;;1.18;100.00
64844;BME280;51310;52.198;5.422;2023-04-27T05:14:51;101963.94;;;1.36;100.00
64844;BME280;51310;52.198;5.422;2023-04-27T05:17:17;101962.53;;;1.66;100.00
64844;BME280;51310;52.198;5.422;2023-04-27T05:19:43;101964.84;;;1.76;100.00
64844;BME280;51310;52.198;5.422;2023-04-27T05:22:09;101955.34;;;1.97;100.00
64844;BME280;51310;52.198;5.422;2023-04-27T05:24:35;101949.50;;;2.15;100.00
64844;BME280;51310;52.198;5.422;2023-04-27T05:27:01;101942.25;;;2.35;100.00
64844;BME280;51310;52.198;5.422;2023-04-27T05:29:26;101944.47;;;2.56;100.00
64844;BME280;51310;52.198;5.422;2023-04-27T05:31:52;101941.63;;;2.72;100.00
64844;BME280;51310;52.198;5.422;2023-04-27T05:34:18;101945.97;;;2.78;100.00
64844;BME280;51310;52.198;5.422;2023-04-27T05:36:44;101948.38;;;3.01;100.00
64844;BME280;51310;52.198;5.422;2023-04-27T05:39:12;101945.66;;;3.23;100.00
64844;BME280;51310;52.198;5.422;2023-04-27T05:41:38;101954.06;;;3.41;100.00
64844;BME280;51310;52.198;5.422;2023-04-27T05:44:05;101949.75;;;3.34;100.00
64844;BME280;51310;52.198;5.422;2023-04-27T05:46:31;101949.94;;;3.41;100.00
64844;BME280;51310;52.198;5.422;2023-04-27T05:48:57;101950.44;;;3.63;100.00
64844;BME280;51310;52.198;5.422;2023-04-27T05:51:23;101940.44;;;3.64;100.00
64844;BME280;51310;52.198;5.422;2023-04-27T05:53:49;101947.56;;;3.73;100.00
64844;BME280;51310;52.198;5.422;2023-04-27T05:56:15;101940.69;;;3.84;100.00
64844;BME280;51310;52.198;5.422;2023-04-27T05:58:40;101940.59;;;3.96;100.00
64844;BME280;51310;52.198;5.422;2023-04-27T06:01:07;101941.53;;;3.96;100.00
64844;BME280;51310;52.198;5.422;2023-04-27T06:03:32;101930.44;;;4.14;100.00
64844;BME280;51310;52.198;5.422;2023-04-27T06:05:59;101932.69;;;4.18;100.00
64844;BME280;51310;52.198;5.422;2023-04-27T06:08:26;101933.56;;;4.24;100.00
64844;BME280;51310;52.198;5.422;2023-04-27T06:10:53;101932.06;;;4.14;100.00
64844;BME280;51310;52.198;5.422;2023-04-27T06:13:19;101931.34;;;4.15;100.00
64844;BME280;51310;52.198;5.422;2023-04-27T06:15:45;101929.47;;;4.19;100.00
64844;BME280;51310;52.198;5.422;2023-04-27T06:18:12;101932.81;;;4.25;100.00
64844;BME280;51310;52.198;5.422;2023-04-27T06:20:38;101935.19;;;4.24;100.00
64844;BME280;51310;52.198;5.422;2023-04-27T06:23:03;101932.13;;;4.26;100.00
64844;BME280;51310;52.198;5.422;2023-04-27T06:25:29;101929.66;;;4.21;100.00
64844;BME280;51310;52.198;5.422;2023-04-27T06:27:56;101929.81;;;4.28;100.00
64844;BME280;51310;52.198;5.422;2023-04-27T06:30:23;101939.22;;;4.35;100.00
64844;BME280;51310;52.198;5.422;2023-04-27T06:32:50;101937.53;;;4.41;100.00
64844;BME280;51310;52.198;5.422;2023-04-27T06:35:16;101941.84;;;4.47;100.00
64844;BME280;51310;52.198;5.422;2023-04-27T06:37:42;101935.97;;;4.54;100.00
64844;BME280;51310;52.198;5.422;2023-04-27T06:40:09;101940.16;;;4.54;100.00
64844;BME280;51310;52.198;5.422;2023-04-27T06:42:36;101945.38;;;4.61;100.00
64844;BME280;51310;52.198;5.422;2023-04-27T06:45:02;101939.69;;;4.69;100.00
64844;BME280;51310;52.198;5.422;2023-04-27T06:47:29;101948.16;;;4.75;100.00
64844;BME280;51310;52.198;5.422;2023-04-27T06:49:54;101943.22;;;4.82;100.00
64844;BME280;51310;52.198;5.422;2023-04-27T06:52:20;101937.38;;;4.83;100.00
64844;BME280;51310;52.198;5.422;2023-04-27T06:54:46;101943.84;;;4.87;100.00
64844;BME280;51310;52.198;5.422;2023-04-27T06:57:12;101934.88;;;4.96;100.00
64844;BME280;51310;52.198;5.422;2023-04-27T06:59:38;101936.94;;;4.99;100.00
64844;BME280;51310;52.198;5.422;2023-04-27T07:02:05;101938.69;;;5.05;100.00
64844;BME280;51310;52.198;5.422;2023-04-27T07:04:31;101938.09;;;5.13;100.00
64844;BME280;51310;52.198;5.422;2023-04-27T07:06:57;101935.97;;;5.17;100.00
64844;BME280;51310;52.198;5.422;2023-04-27T07:09:23;101946.00;;;5.28;100.00
64844;BME280;51310;52.198;5.422;2023-04-27T07:11:48;101940.00;;;5.40;100.00
64844;BME280;51310;52.198;5.422;2023-04-27T07:14:14;101940.41;;;5.56;100.00
64844;BME280;51310;52.198;5.422;2023-04-27T07:16:40;101937.66;;;5.67;100.00
64844;BME280;51310;52.198;5.422;2023-04-27T07:19:06;101935.63;;;5.78;100.00
64844;BME280;51310;52.198;5.422;2023-04-27T07:21:31;101941.25;;;5.88;100.00
64844;BME280;51310;52.198;5.422;2023-04-27T07:23:57;101949.72;;;6.07;100.00
64844;BME280;51310;52.198;5.422;2023-04-27T07:26:23;101942.03;;;6.20;100.00
64844;BME280;51310;52.198;5.422;2023-04-27T07:28:49;101942.44;;;6.23;100.00
64844;BME280;51310;52.198;5.422;2023-04-27T07:31:15;101952.41;;;6.47;100.00
64844;BME280;51310;52.198;5.422;2023-04-27T07:33:41;101947.25;;;6.60;100.00
64844;BME280;51310;52.198;5.422;2023-04-27T07:36:07;101946.78;;;6.69;100.00
64844;BME280;51310;52.198;5.422;2023-04-27T07:38:33;101940.66;;;6.74;100.00
64844;BME280;51310;52.198;5.422;2023-04-27T07:41:00;101929.63;;;6.88;100.00
64844;BME280;51310;52.198;5.422;2023-04-27T07:43:27;101939.78;;;6.81;100.00
64844;BME280;51310;52.198;5.422;2023-04-27T07:45:53;101937.81;;;6.86;100.00
64844;BME280;51310;52.198;5.422;2023-04-27T07:48:20;101929.63;;;6.88;100.00
64844;BME280;51310;52.198;5.422;2023-04-27T07:50:47;101936.25;;;7.13;100.00
64844;BME280;51310;52.198;5.422;2023-04-27T07:53:12;101925.84;;;7.19;100.00
64844;BME280;51310;52.198;5.422;2023-04-27T07:55:38;101931.69;;;7.38;100.00
64844;BME280;51310;52.198;5.422;2023-04-27T07:58:04;101943.34;;;7.56;100.00
64844;BME280;51310;52.198;5.422;2023-04-27T08:00:30;101936.59;;;7.64;100.00
64844;BME280;51310;52.198;5.422;2023-04-27T08:02:56;101932.28;;;7.77;100.00
64844;BME280;51310;52.198;5.422;2023-04-27T08:05:22;101937.75;;;7.73;99.09
64844;BME280;51310;52.198;5.422;2023-04-27T08:07:47;101934.91;;;7.84;98.47
64844;BME280;51310;52.198;5.422;2023-04-27T08:10:14;101939.94;;;7.97;94.22
64844;BME280;51310;52.198;5.422;2023-04-27T08:12:40;101933.94;;;8.11;93.39
64844;BME280;51310;52.198;5.422;2023-04-27T08:15:06;101935.06;;;8.20;93.82
64844;BME280;51310;52.198;5.422;2023-04-27T08:17:32;101942.38;;;8.17;93.32
64844;BME280;51310;52.198;5.422;2023-04-27T08:19:58;101946.44;;;8.22;90.36
64844;BME280;51310;52.198;5.422;2023-04-27T08:22:24;101941.47;;;8.16;81.80
64844;BME280;51310;52.198;5.422;2023-04-27T08:24:50;101939.97;;;8.11;78.04
64844;BME280;51310;52.198;5.422;2023-04-27T08:27:15;101943.88;;;8.29;77.34
64844;BME280;51310;52.198;5.422;2023-04-27T08:29:48;101939.91;;;8.38;73.56
64844;BME280;51310;52.198;5.422;2023-04-27T08:32:14;101936.13;;;8.56;78.57
64844;BME280;51310;52.198;5.422;2023-04-27T08:34:40;101942.03;;;8.62;75.80
64844;BME280;51310;52.198;5.422;2023-04-27T08:37:06;101949.16;;;8.58;73.22
64844;BME280;51310;52.198;5.422;2023-04-27T08:39:33;101938.34;;;8.53;68.09
64844;BME280;51310;52.198;5.422;2023-04-27T08:41:59;101934.69;;;8.58;69.79
64844;BME280;51310;52.198;5.422;2023-04-27T08:44:25;101937.25;;;8.66;66.02
64844;BME280;51310;52.198;5.422;2023-04-27T08:46:50;101935.44;;;8.65;68.27
64844;BME280;51310;52.198;5.422;2023-04-27T08:49:16;101938.59;;;8.91;68.74
64844;BME280;51310;52.198;5.422;2023-04-27T08:51:43;101935.25;;;8.92;63.43
64844;BME280;51310;52.198;5.422;2023-04-27T08:54:09;101932.72;;;9.06;68.45
64844;BME280;51310;52.198;5.422;2023-04-27T08:56:34;101931.28;;;9.22;72.08
64844;BME280;51310;52.198;5.422;2023-04-27T08:59:01;101928.16;;;9.18;64.65
64844;BME280;51310;52.198;5.422;2023-04-27T09:01:29;101936.22;;;8.99;62.58
64844;BME280;51310;52.198;5.422;2023-04-27T09:03:57;101942.25;;;8.86;62.67
64844;BME280;51310;52.198;5.422;2023-04-27T09:06:31;101939.31;;;8.75;65.35
64844;BME280;51310;52.198;5.422;2023-04-27T09:08:58;101937.13;;;8.86;65.51
64844;BME280;51310;52.198;5.422;2023-04-27T09:11:33;101936.38;;;8.94;66.60
64844;BME280;51310;52.198;5.422;2023-04-27T09:14:02;101928.16;;;9.25;67.52
64844;BME280;51310;52.198;5.422;2023-04-27T09:16:29;101934.00;;;9.31;66.43
64844;BME280;51310;52.198;5.422;2023-04-27T09:18:57;101931.97;;;9.57;63.73
64844;BME280;51310;52.198;5.422;2023-04-27T09:21:25;101930.22;;;9.86;63.68
64844;BME280;51310;52.198;5.422;2023-04-27T09:23:51;101924.50;;;9.89;62.29
64844;BME280;51310;52.198;5.422;2023-04-27T09:26:26;101919.44;;;9.75;63.26
64844;BME280;51310;52.198;5.422;2023-04-27T09:28:54;101921.97;;;9.82;62.64
64844;BME280;51310;52.198;5.422;2023-04-27T09:31:34;101916.91;;;10.12;63.18
64844;BME280;51310;52.198;5.422;2023-04-27T09:34:01;101922.81;;;10.49;62.40
64844;BME280;51310;52.198;5.422;2023-04-27T09:36:29;101927.78;;;10.47;61.23
64844;BME280;51310;52.198;5.422;2023-04-27T09:38:55;101924.25;;;10.54;59.86
64844;BME280;51310;52.198;5.422;2023-04-27T09:41:22;101911.69;;;10.64;58.05
64844;BME280;51310;52.198;5.422;2023-04-27T09:43:48;101911.44;;;10.77;57.47
64844;BME280;51310;52.198;5.422;2023-04-27T09:46:15;101915.72;;;10.69;56.30
64844;BME280;51310;52.198;5.422;2023-04-27T09:48:41;101910.72;;;10.71;56.90
64844;BME280;51310;52.198;5.422;2023-04-27T09:51:07;101917.75;;;10.34;57.71
64844;BME280;51310;52.198;5.422;2023-04-27T09:53:47;101920.19;;;10.63;57.67
64844;BME280;51310;52.198;5.422;2023-04-27T09:56:52;101913.34;;;10.94;58.43
64844;BME280;51310;52.198;5.422;2023-04-27T10:00:28;101898.97;;;11.19;56.97
64844;BME280;51310;52.198;5.422;2023-04-27T10:03:25;101902.00;;;11.07;56.38
64844;BME280;51310;52.198;5.422;2023-04-27T10:08:36;101892.38;;;11.14;56.59
64844;BME280;51310;52.198;5.422;2023-04-27T10:11:16;101903.06;;;11.33;56.07
64844;BME280;51310;52.198;5.422;2023-04-27T10:13:54;101895.84;;;11.14;54.43
64844;BME280;51310;52.198;5.422;2023-04-27T10:16:20;101898.31;;;11.28;54.03
64844;BME280;51310;52.198;5.422;2023-04-27T10:18:55;101898.50;;;11.46;54.42
64844;BME280;51310;52.198;5.422;2023-04-27T10:21:21;101903.16;;;11.57;54.05
64844;BME280;51310;52.198;5.422;2023-04-27T10:23:51;101904.31;;;11.36;52.23
64844;BME280;51310;52.198;5.422;2023-04-27T10:26:26;101915.22;;;10.87;51.46
64844;BME280;51310;52.198;5.422;2023-04-27T10:29:07;101909.38;;;10.51;52.35
64844;BME280;51310;52.198;5.422;2023-04-27T10:31:34;101910.28;;;10.52;52.69
64844;BME280;51310;52.198;5.422;2023-04-27T10:34:14;101898.56;;;10.77;54.48
64844;BME280;51310;52.198;5.422;2023-04-27T10:36:40;101888.97;;;11.06;52.89
64844;BME280;51310;52.198;5.422;2023-04-27T10:39:20;101887.97;;;11.13;52.49
64844;BME280;51310;52.198;5.422;2023-04-27T10:41:55;101890.50;;;11.36;54.38
64844;BME280;51310;52.198;5.422;2023-04-27T10:44:31;101899.88;;;11.58;53.32
64844;BME280;51310;52.198;5.422;2023-04-27T10:47:00;101903.78;;;11.70;52.93
64844;BME280;51310;52.198;5.422;2023-04-27T10:49:28;101897.22;;;11.26;51.45
64844;BME280;51310;52.198;5.422;2023-04-27T10:51:57;101885.22;;;10.88;52.13
64844;BME280;51310;52.198;5.422;2023-04-27T10:54:27;101885.44;;;11.05;53.61
64844;BME280;51310;52.198;5.422;2023-04-27T10:57:01;101890.53;;;11.52;54.20
64844;BME280;51310;52.198;5.422;2023-04-27T10:59:28;101892.03;;;11.65;51.82
64844;BME280;51310;52.198;5.422;2023-04-27T11:01:53;101886.91;;;11.97;52.11
64844;BME280;51310;52.198;5.422;2023-04-27T11:04:19;101893.91;;;11.98;51.03
64844;BME280;51310;52.198;5.422;2023-04-27T11:06:45;101885.41;;;11.99;51.46
64844;BME280;51310;52.198;5.422;2023-04-27T11:09:12;101893.56;;;12.11;51.00
64844;BME280;51310;52.198;5.422;2023-04-27T11:11:43;101881.66;;;12.20;51.25
64844;BME280;51310;52.198;5.422;2023-04-27T11:14:18;101880.06;;;11.82;48.39
64844;BME280;51310;52.198;5.422;2023-04-27T11:16:47;101869.25;;;11.61;50.07
64844;BME280;51310;52.198;5.422;2023-04-27T11:19:13;101863.66;;;11.65;49.35
64844;BME280;51310;52.198;5.422;2023-04-27T11:21:40;101866.84;;;11.63;49.20
64844;BME280;51310;52.198;5.422;2023-04-27T11:24:07;101854.59;;;11.85;49.84
64844;BME280;51310;52.198;5.422;2023-04-27T11:26:34;101852.44;;;12.13;50.60
64844;BME280;51310;52.198;5.422;2023-04-27T11:29:09;101858.69;;;12.39;50.65
64844;BME280;51310;52.198;5.422;2023-04-27T11:34:08;101846.91;;;12.50;51.14
64844;BME280;51310;52.198;5.422;2023-04-27T11:36:40;101856.97;;;12.31;48.70
64844;BME280;51310;52.198;5.422;2023-04-27T11:39:06;101851.53;;;12.12;48.08
64844;BME280;51310;52.198;5.422;2023-04-27T11:41:35;101858.25;;;12.19;49.32
64844;BME280;51310;52.198;5.422;2023-04-27T11:44:06;101851.78;;;12.06;49.64
64844;BME280;51310;52.198;5.422;2023-04-27T11:46:36;101856.81;;;12.14;49.50
64844;BME280;51310;52.198;5.422;2023-04-27T11:49:06;101843.59;;;12.10;49.69
64844;BME280;51310;52.198;5.422;2023-04-27T11:51:35;101843.03;;;12.13;49.46
64844;BME280;51310;52.198;5.422;2023-04-27T11:54:06;101843.78;;;12.37;49.02
64844;BME280;51310;52.198;5.422;2023-04-27T11:56:38;101844.66;;;11.88;47.53
64844;BME280;51310;52.198;5.422;2023-04-27T11:59:05;101838.63;;;11.80;47.91
64844;BME280;51310;52.198;5.422;2023-04-27T12:01:34;101835.97;;;12.03;48.94
64844;BME280;51310;52.198;5.422;2023-04-27T12:04:00;101835.19;;;12.20;47.35
64844;BME280;51310;52.198;5.422;2023-04-27T12:06:28;101831.13;;;11.75;48.29
64844;BME280;51310;52.198;5.422;2023-04-27T12:08:55;101835.13;;;11.48;47.77
64844;BME280;51310;52.198;5.422;2023-04-27T12:11:24;101827.41;;;11.64;48.03
64844;BME280;51310;52.198;5.422;2023-04-27T12:13:50;101833.91;;;11.60;48.95
64844;BME280;51310;52.198;5.422;2023-04-27T12:16:17;101837.38;;;12.08;49.72
64844;BME280;51310;52.198;5.422;2023-04-27T12:18:42;101835.72;;;12.58;49.64
64844;BME280;51310;52.198;5.422;2023-04-27T12:21:08;101828.63;;;13.06;48.83
64844;BME280;51310;52.198;5.422;2023-04-27T12:23:35;101820.47;;;13.28;47.65
64844;BME280;51310;52.198;5.422;2023-04-27T12:26:01;101825.41;;;13.33;46.53
64844;BME280;51310;52.198;5.422;2023-04-27T12:28:27;101821.22;;;12.18;46.92
64844;BME280;51310;52.198;5.422;2023-04-27T12:30:53;101821.41;;;11.72;48.69
64844;BME280;51310;52.198;5.422;2023-04-27T12:33:19;101814.78;;;11.90;48.15
64844;BME280;51310;52.198;5.422;2023-04-27T12:35:45;101813.53;;;11.70;49.04
64844;BME280;51310;52.198;5.422;2023-04-27T12:38:10;101804.19;;;11.96;48.21
64844;BME280;51310;52.198;5.422;2023-04-27T12:40:36;101801.19;;;11.84;48.68
64844;BME280;51310;52.198;5.422;2023-04-27T12:43:02;101795.69;;;11.81;48.27
64844;BME280;51310;52.198;5.422;2023-04-27T12:45:28;101797.78;;;11.76;47.96
64844;BME280;51310;52.198;5.422;2023-04-27T12:47:53;101801.28;;;11.93;47.82
64844;BME280;51310;52.198;5.422;2023-04-27T12:50:19;101802.31;;;12.35;46.47
64844;BME280;51310;52.198;5.422;2023-04-27T12:52:46;101789.44;;;12.44;44.07
64844;BME280;51310;52.198;5.422;2023-04-27T12:55:12;101801.53;;;12.27;44.27